Alpha, Iowa
Current Conditions -  °F | °C
As of 8:15 PM on Friday 19 Dec 2014 (Local Time) from KDEH Reporting Station
Overcast Overcast  
Wind Chill: 19°   Ceiling: 3500
Heat Index: 27°   Visibility: 10mi
Dew Point: 23°   Wind: 7mph
Humidity: 86%   Direction: 140°SE
Pressure: 30.2"   Gusts: NA
Location:  43.0382°N, 92.0219°W
Report Text: KDEH 200215Z AUTO 14006KT 10SM OVC035 M03/M05 A3020 RMK AO2
Loading
Personal Weather Stations






























Interactive Weather Map New forecast layout! Learn more

10-Day Weather Forecast

Advertisements
Track Severe Weather on mobile